Nederlandse vliegveldverwachtingen (TAF)

Luchtvaartmeteorologische informatie voor operationeel gebruik en vluchtvoorbereiding is beschikbaar op www.luchtvaartmeteo.nl.

ZCZC
FT040500 EHEH     EINDHOVEN/EINDHOVEN   NLD   22 m.
TAF EHEH 040502Z 0406/0512 VRB02KT 6000 NSC
    BECMG 0407/0410 07003KT
    TEMPO 0411/0421 4000 SHRA SCT020CB
    BECMG 0421/0424 VRB02KT 4000 BR MIFG
    TEMPO 0500/0506 0800 BCFG
    BECMG 0505/0508 9999 NSW
    PROB30 TEMPO 0505/0508 SCT006=

ZCZC
FC040900 EHKD     DE KOOY/DE KOOY   NLD   1 m.
TAF EHKD 040813Z 0409/0421 07007KT 9999 SCT020
    PROB30 TEMPO 0412/0418 SCT025CB=

ZCZC
FC040900 EHGR     GILZE-RIJEN/GILZE-RIJEN   NLD   14 m.
TAF EHGR 040818Z 0409/0421 11004KT 9999 FEW028
    TEMPO 0411/0421 4000 SHRA SCT025CB=

ZCZC
FC040900 EHLW     LEEUWARDEN/LEEUWARDEN   NLD   1 m.
TAF EHLW 040809Z 0409/0421 05007KT 9999 SCT025
    PROB30 TEMPO 0412/0418 SCT025CB=

ZCZC
FC040900 EHVK     VOLKEL/VOLKEL   NLD   21 m.
TAF EHVK 040829Z 0409/0421 06004KT 9999 FEW025
    TEMPO 0411/0421 4000 SHRA SCT025CB=

ZCZC
FC040900 EHWO     WOENSDRECHT/WOENSDRECHT   NLD   19 m.
TAF EHWO 040828Z 0409/0421 11004KT 9999 FEW022
    TEMPO 0411/0421 4000 SHRA SCT025CB
    BECMG 0413/0415 33006KT=

ZCZC
FT041100 EHLE     LELYSTAD/LELYSTAD   NLD   -3 m.
TAF EHLE 041112Z 0412/0518 08006KT 9999 SCT030
    PROB40 TEMPO 0412/0419 VRB15KT 5000 SHRA SCT025CB
    PROB30 TEMPO 0500/0506 4000 MIFG BR
    PROB40 TEMPO 0512/0517 VRB15KT 5000 SHRA SCT025CB=

ZCZC
FT041100 EHAM     AMSTERDAM/SCHIPHOL   NLD   -3 m.
TAF EHAM 041112Z 0412/0518 05007KT 9999 SCT040
    PROB40 TEMPO 0412/0418 VRB15KT 5000 SHRA SCT030CB
    PROB30 TEMPO 0500/0506 4000 MIFG BR
    PROB30 TEMPO 0512/0516 VRB15KT 5000 SHRA SCT025CB=

ZCZC
FT041100 EHRD     ROTTERDAM/THE HAGUE AIRPORT   NLD   -5 m.
TAF EHRD 041112Z 0412/0518 07005KT 9999 SCT030
    PROB40 TEMPO 0412/0419 VRB15KT 5000 SHRA SCT025CB
    BECMG 0423/0502 5000 MIFG BR
    PROB40 TEMPO 0501/0506 1400 BCFG
    BECMG 0505/0507 9999 NSW
    PROB30 TEMPO 0512/0515 VRB15KT 5000 SHRA SCT025CB=

ZCZC
FT041100 EHGG     GRONINGEN/EELDE   NLD   5 m.
TAF EHGG 041114Z 0412/0518 05007KT 9999 SCT030
    PROB30 TEMPO 0413/0418 6000 -SHRA FEW025CB
    PROB30 0501/0506 4000 MIFG
    PROB40 TEMPO 0512/0518 4000 SHRA SCT030CB=

ZCZC
FT041100 EHBK     MAASTRICHT/MAASTRICHT-AACHEN   NLD   114 m.
TAF EHBK 041114Z 0412/0518 04005KT 9999 SCT030
    PROB40 TEMPO 0412/0420 VRB15KT 4000 SHRA SCT025CB
    BECMG 0421/0424 4000 MIFG BR
    BECMG 0505/0507 CAVOK
    PROB30 TEMPO 0511/0515 VRB15KT 4000 SHRA SCT030CB=

04/08/2021 13.30 uur LT